sensor_id;sensor_type;location;lat;lon;timestamp;pressure;altitude;pressure_sealevel;temperature;humidity
6899;BME280;3488;42.616;23.350;2023-03-14T00:01:32;62203.59;;;2.00;56.72
6899;BME280;3488;42.616;23.350;2023-03-14T00:04:01;62197.97;;;1.95;58.16
6899;BME280;3488;42.616;23.350;2023-03-14T00:06:31;62201.50;;;1.96;56.38
6899;BME280;3488;42.616;23.350;2023-03-14T00:08:59;62207.19;;;2.04;56.01
6899;BME280;3488;42.616;23.350;2023-03-14T00:11:27;62201.56;;;1.98;56.15
6899;BME280;3488;42.616;23.350;2023-03-14T00:13:56;62195.91;;;1.93;56.12
6899;BME280;3488;42.616;23.350;2023-03-14T00:16:26;62193.28;;;1.88;56.33
6899;BME280;3488;42.616;23.350;2023-03-14T00:18:55;62193.75;;;1.86;56.91
6899;BME280;3488;42.616;23.350;2023-03-14T00:21:24;62184.03;;;1.79;57.34
6899;BME280;3488;42.616;23.350;2023-03-14T00:23:52;62157.91;;;1.56;57.66
6899;BME280;3488;42.616;23.350;2023-03-14T00:26:21;62174.81;;;1.70;57.80
6899;BME280;3488;42.616;23.350;2023-03-14T00:28:52;62173.78;;;1.69;57.81
6899;BME280;3488;42.616;23.350;2023-03-14T00:31:19;62178.91;;;1.74;58.75
6899;BME280;3488;42.616;23.350;2023-03-14T00:33:48;62168.69;;;1.66;58.12
6899;BME280;3488;42.616;23.350;2023-03-14T00:36:17;62165.06;;;1.60;59.15
6899;BME280;3488;42.616;23.350;2023-03-14T00:38:48;62170.13;;;1.63;59.23
6899;BME280;3488;42.616;23.350;2023-03-14T00:41:18;62163.00;;;1.58;59.41
6899;BME280;3488;42.616;23.350;2023-03-14T00:43:45;62166.59;;;1.62;60.32
6899;BME280;3488;42.616;23.350;2023-03-14T00:46:13;62167.69;;;1.65;61.06
6899;BME280;3488;42.616;23.350;2023-03-14T00:48:44;62180.44;;;1.75;60.22
6899;BME280;3488;42.616;23.350;2023-03-14T00:51:14;62176.91;;;1.74;60.46
6899;BME280;3488;42.616;23.350;2023-03-14T00:53:42;62192.69;;;1.85;60.76
6899;BME280;3488;42.616;23.350;2023-03-14T00:56:13;62188.16;;;1.83;61.39
6899;BME280;3488;42.616;23.350;2023-03-14T00:58:40;62184.56;;;1.79;61.21
6899;BME280;3488;42.616;23.350;2023-03-14T01:01:09;62178.47;;;1.76;61.97
6899;BME280;3488;42.616;23.350;2023-03-14T01:03:37;62188.53;;;1.78;61.92
6899;BME280;3488;42.616;23.350;2023-03-14T01:06:09;62168.69;;;1.66;64.02
6899;BME280;3488;42.616;23.350;2023-03-14T01:08:37;62163.00;;;1.58;62.74
6899;BME280;3488;42.616;23.350;2023-03-14T01:11:06;62151.13;;;1.44;63.78
6899;BME280;3488;42.616;23.350;2023-03-14T01:13:36;62141.41;;;1.35;64.21
6899;BME280;3488;42.616;23.350;2023-03-14T01:16:04;62142.41;;;1.36;64.59
6899;BME280;3488;42.616;23.350;2023-03-14T01:18:33;62139.47;;;1.38;64.92
6899;BME280;3488;42.616;23.350;2023-03-14T01:21:02;62138.38;;;1.34;65.53
6899;BME280;3488;42.616;23.350;2023-03-14T01:23:29;62134.78;;;1.31;65.87
6899;BME280;3488;42.616;23.350;2023-03-14T01:25:56;62144.97;;;1.38;65.88
6899;BME280;3488;42.616;23.350;2023-03-14T01:28:24;62137.34;;;1.33;66.89
6899;BME280;3488;42.616;23.350;2023-03-14T01:30:53;62136.31;;;1.32;67.38
6899;BME280;3488;42.616;23.350;2023-03-14T01:33:21;62143.94;;;1.37;66.54
6899;BME280;3488;42.616;23.350;2023-03-14T01:35:50;62132.28;;;1.31;66.54
6899;BME280;3488;42.616;23.350;2023-03-14T01:38:16;62132.78;;;1.31;66.76
6899;BME280;3488;42.616;23.350;2023-03-14T01:40:44;62138.88;;;1.35;65.62
6899;BME280;3488;42.616;23.350;2023-03-14T01:43:15;62136.78;;;1.30;64.41
6899;BME280;3488;42.616;23.350;2023-03-14T01:48:57;62135.88;;;1.34;65.02
6899;BME280;3488;42.616;23.350;2023-03-14T01:51:29;62136.84;;;1.33;66.55
6899;BME280;3488;42.616;23.350;2023-03-14T01:54:02;62133.63;;;1.25;68.72
6899;BME280;3488;42.616;23.350;2023-03-14T01:56:31;62117.84;;;1.14;68.43
6899;BME280;3488;42.616;23.350;2023-03-14T01:58:58;62111.69;;;1.08;67.89
6899;BME280;3488;42.616;23.350;2023-03-14T02:01:28;62120.34;;;1.14;67.85
6899;BME280;3488;42.616;23.350;2023-03-14T02:04:00;62115.84;;;1.14;67.63
6899;BME280;3488;42.616;23.350;2023-03-14T02:06:33;62113.13;;;1.04;68.25
6899;BME280;3488;42.616;23.350;2023-03-14T02:09:02;62108.16;;;1.07;68.47
6899;BME280;3488;42.616;23.350;2023-03-14T02:11:29;62113.75;;;1.10;69.07
6899;BME280;3488;42.616;23.350;2023-03-14T02:13:57;62107.59;;;1.04;69.44
6899;BME280;3488;42.616;23.350;2023-03-14T02:16:25;62117.28;;;1.11;68.56
6899;BME280;3488;42.616;23.350;2023-03-14T02:18:53;62108.16;;;1.07;67.67
6899;BME280;3488;42.616;23.350;2023-03-14T02:21:25;62123.50;;;1.19;68.40
6899;BME280;3488;42.616;23.350;2023-03-14T02:24:05;62128.13;;;1.24;68.76
6899;BME280;3488;42.616;23.350;2023-03-14T02:26:38;62115.22;;;1.09;69.95
6899;BME280;3488;42.616;23.350;2023-03-14T02:29:09;62113.75;;;1.10;69.43
6899;BME280;3488;42.616;23.350;2023-03-14T02:31:36;62114.78;;;1.11;69.80
6899;BME280;3488;42.616;23.350;2023-03-14T02:34:03;62110.28;;;1.11;69.98
6899;BME280;3488;42.616;23.350;2023-03-14T02:36:31;62106.06;;;1.02;70.00
6899;BME280;3488;42.616;23.350;2023-03-14T02:39:07;62114.19;;;1.08;70.04
6899;BME280;3488;42.616;23.350;2023-03-14T02:41:34;62099.84;;;0.94;70.11
6899;BME280;3488;42.616;23.350;2023-03-14T02:44:01;62109.13;;;1.05;71.07
6899;BME280;3488;42.616;23.350;2023-03-14T02:46:30;62099.38;;;0.96;71.91
6899;BME280;3488;42.616;23.350;2023-03-14T02:49:02;62099.44;;;0.98;72.36
6899;BME280;3488;42.616;23.350;2023-03-14T02:51:30;62106.56;;;1.03;72.26
6899;BME280;3488;42.616;23.350;2023-03-14T02:53:58;62097.91;;;0.97;71.69
6899;BME280;3488;42.616;23.350;2023-03-14T02:56:25;62099.44;;;0.98;70.70
6899;BME280;3488;42.616;23.350;2023-03-14T02:58:52;62102.97;;;0.99;70.96
6899;BME280;3488;42.616;23.350;2023-03-14T03:01:19;62099.31;;;0.93;71.16
6899;BME280;3488;42.616;23.350;2023-03-14T03:03:48;62095.41;;;0.97;71.40
6899;BME280;3488;42.616;23.350;2023-03-14T03:06:15;62098.81;;;0.93;71.92
6899;BME280;3488;42.616;23.350;2023-03-14T03:08:41;62099.44;;;0.98;72.04
6899;BME280;3488;42.616;23.350;2023-03-14T03:11:08;62103.44;;;0.97;72.77
6899;BME280;3488;42.616;23.350;2023-03-14T03:13:35;62102.97;;;0.99;73.00
6899;BME280;3488;42.616;23.350;2023-03-14T03:16:04;62109.59;;;1.03;72.00
6899;BME280;3488;42.616;23.350;2023-03-14T03:18:31;62106.06;;;1.02;71.64
6899;BME280;3488;42.616;23.350;2023-03-14T03:21:01;62101.91;;;0.96;70.98
6899;BME280;3488;42.616;23.350;2023-03-14T03:23:29;62099.91;;;0.96;69.80
6899;BME280;3488;42.616;23.350;2023-03-14T03:25:56;62101.50;;;1.00;69.96
6899;BME280;3488;42.616;23.350;2023-03-14T03:28:23;62094.78;;;0.91;70.67
6899;BME280;3488;42.616;23.350;2023-03-14T03:30:50;62089.06;;;0.83;71.92
6899;BME280;3488;42.616;23.350;2023-03-14T03:33:17;62090.22;;;0.89;71.21
6899;BME280;3488;42.616;23.350;2023-03-14T03:35:45;62089.19;;;0.88;73.17
6899;BME280;3488;42.616;23.350;2023-03-14T03:38:14;62088.03;;;0.82;74.36
6899;BME280;3488;42.616;23.350;2023-03-14T03:40:41;62076.38;;;0.76;74.21
6899;BME280;3488;42.616;23.350;2023-03-14T03:43:09;62068.28;;;0.73;74.69
6899;BME280;3488;42.616;23.350;2023-03-14T03:45:36;62073.28;;;0.73;74.51
6899;BME280;3488;42.616;23.350;2023-03-14T03:48:04;62072.16;;;0.67;74.14
6899;BME280;3488;42.616;23.350;2023-03-14T03:50:31;62074.66;;;0.67;73.73
6899;BME280;3488;42.616;23.350;2023-03-14T03:52:58;62071.63;;;0.66;74.83
6899;BME280;3488;42.616;23.350;2023-03-14T03:55:26;62062.50;;;0.62;75.05
6899;BME280;3488;42.616;23.350;2023-03-14T03:57:53;62069.56;;;0.64;75.83
6899;BME280;3488;42.616;23.350;2023-03-14T04:00:21;62069.56;;;0.64;76.11
6899;BME280;3488;42.616;23.350;2023-03-14T04:02:49;62059.84;;;0.55;77.13
6899;BME280;3488;42.616;23.350;2023-03-14T04:05:18;62054.72;;;0.50;78.07
6899;BME280;3488;42.616;23.350;2023-03-14T04:07:45;62044.13;;;0.47;78.94
6899;BME280;3488;42.616;23.350;2023-03-14T04:10:12;62050.81;;;0.53;78.98
6899;BME280;3488;42.616;23.350;2023-03-14T04:12:41;62046.63;;;0.47;79.37
6899;BME280;3488;42.616;23.350;2023-03-14T04:15:08;62046.13;;;0.46;79.91
6899;BME280;3488;42.616;23.350;2023-03-14T04:17:35;62046.63;;;0.47;80.51
6899;BME280;3488;42.616;23.350;2023-03-14T04:20:03;62047.66;;;0.48;80.18
6899;BME280;3488;42.616;23.350;2023-03-14T04:22:30;62053.19;;;0.48;79.88
6899;BME280;3488;42.616;23.350;2023-03-14T04:24:57;62044.59;;;0.45;79.61
6899;BME280;3488;42.616;23.350;2023-03-14T04:27:24;62040.41;;;0.38;79.44
6899;BME280;3488;42.616;23.350;2023-03-14T04:29:52;62040.25;;;0.31;79.26
6899;BME280;3488;42.616;23.350;2023-03-14T04:32:19;62028.13;;;0.26;79.16
6899;BME280;3488;42.616;23.350;2023-03-14T04:34:46;62034.28;;;0.32;79.41
6899;BME280;3488;42.616;23.350;2023-03-14T04:37:13;62016.78;;;0.13;79.95
6899;BME280;3488;42.616;23.350;2023-03-14T04:39:40;62021.84;;;0.15;79.84
6899;BME280;3488;42.616;23.350;2023-03-14T04:42:08;62020.50;;;0.21;79.72
6899;BME280;3488;42.616;23.350;2023-03-14T04:44:34;62031.69;;;0.30;79.85
6899;BME280;3488;42.616;23.350;2023-03-14T04:47:03;62026.09;;;0.24;80.45
6899;BME280;3488;42.616;23.350;2023-03-14T04:49:30;62034.22;;;0.30;80.76
6899;BME280;3488;42.616;23.350;2023-03-14T04:51:56;62024.66;;;0.28;81.36
6899;BME280;3488;42.616;23.350;2023-03-14T04:54:23;62024.66;;;0.28;81.44
6899;BME280;3488;42.616;23.350;2023-03-14T04:56:50;62028.75;;;0.32;81.56
6899;BME280;3488;42.616;23.350;2023-03-14T04:59:17;62033.72;;;0.29;81.96
6899;BME280;3488;42.616;23.350;2023-03-14T05:01:44;62039.41;;;0.37;81.99
6899;BME280;3488;42.616;23.350;2023-03-14T05:04:12;62038.44;;;0.39;81.74
6899;BME280;3488;42.616;23.350;2023-03-14T05:06:39;62045.59;;;0.46;82.10
6899;BME280;3488;42.616;23.350;2023-03-14T05:09:08;62046.63;;;0.47;82.27
6899;BME280;3488;42.616;23.350;2023-03-14T05:11:34;62059.78;;;0.52;82.26
6899;BME280;3488;42.616;23.350;2023-03-14T05:14:01;62065.53;;;0.63;82.01
6899;BME280;3488;42.616;23.350;2023-03-14T05:16:29;62067.66;;;0.67;82.18
6899;BME280;3488;42.616;23.350;2023-03-14T05:18:56;62079.38;;;0.76;82.64
6899;BME280;3488;42.616;23.350;2023-03-14T05:21:24;62087.66;;;0.87;82.86
6899;BME280;3488;42.616;23.350;2023-03-14T05:23:51;62104.00;;;1.00;82.39
6899;BME280;3488;42.616;23.350;2023-03-14T05:26:19;62109.72;;;1.08;80.99
6899;BME280;3488;42.616;23.350;2023-03-14T05:28:46;62127.16;;;1.26;80.97
6899;BME280;3488;42.616;23.350;2023-03-14T05:31:12;62139.91;;;1.36;81.10
6899;BME280;3488;42.616;23.350;2023-03-14T05:33:40;62154.28;;;1.50;80.67
6899;BME280;3488;42.616;23.350;2023-03-14T05:36:08;62172.25;;;1.67;78.56
6899;BME280;3488;42.616;23.350;2023-03-14T05:38:36;62180.44;;;1.75;79.65
6899;BME280;3488;42.616;23.350;2023-03-14T05:41:04;62193.84;;;1.91;78.40
6899;BME280;3488;42.616;23.350;2023-03-14T05:43:31;62215.88;;;2.10;76.53
6899;BME280;3488;42.616;23.350;2023-03-14T05:45:58;62237.38;;;2.28;74.55
6899;BME280;3488;42.616;23.350;2023-03-14T05:48:25;62249.28;;;2.45;72.83
6899;BME280;3488;42.616;23.350;2023-03-14T05:50:54;62259.47;;;2.50;71.23
6899;BME280;3488;42.616;23.350;2023-03-14T05:53:22;62268.31;;;2.64;70.11
6899;BME280;3488;42.616;23.350;2023-03-14T05:55:52;62269.84;;;2.65;68.47
6899;BME280;3488;42.616;23.350;2023-03-14T05:58:19;62274.41;;;2.67;68.09
6899;BME280;3488;42.616;23.350;2023-03-14T06:00:46;62293.47;;;2.88;66.47
6899;BME280;3488;42.616;23.350;2023-03-14T06:03:13;62299.59;;;2.92;66.57
6899;BME280;3488;42.616;23.350;2023-03-14T06:05:40;62317.56;;;3.09;66.71
6899;BME280;3488;42.616;23.350;2023-03-14T06:08:07;62312.38;;;3.02;64.92
6899;BME280;3488;42.616;23.350;2023-03-14T06:10:35;62310.38;;;3.02;64.71
6899;BME280;3488;42.616;23.350;2023-03-14T06:13:04;62292.97;;;2.88;65.30
6899;BME280;3488;42.616;23.350;2023-03-14T06:15:31;62284.25;;;2.79;65.77
6899;BME280;3488;42.616;23.350;2023-03-14T06:18:01;62294.44;;;2.87;66.83
6899;BME280;3488;42.616;23.350;2023-03-14T06:20:28;62309.25;;;2.96;66.85
6899;BME280;3488;42.616;23.350;2023-03-14T06:22:55;62313.41;;;3.03;66.50
6899;BME280;3488;42.616;23.350;2023-03-14T06:25:22;62305.75;;;2.98;65.56
6899;BME280;3488;42.616;23.350;2023-03-14T06:27:49;62296.47;;;2.86;65.67
6899;BME280;3488;42.616;23.350;2023-03-14T06:30:19;62292.97;;;2.88;66.37
6899;BME280;3488;42.616;23.350;2023-03-14T06:32:46;62303.75;;;2.98;66.01
6899;BME280;3488;42.616;23.350;2023-03-14T06:35:13;62299.66;;;2.94;65.75
6899;BME280;3488;42.616;23.350;2023-03-14T06:37:39;62321.72;;;3.16;65.67
6899;BME280;3488;42.616;23.350;2023-03-14T06:40:07;62340.25;;;3.34;64.96
6899;BME280;3488;42.616;23.350;2023-03-14T06:42:35;62355.66;;;3.49;64.12
6899;BME280;3488;42.616;23.350;2023-03-14T06:45:02;62352.59;;;3.46;63.54
6899;BME280;3488;42.616;23.350;2023-03-14T06:47:31;62376.19;;;3.67;64.46
6899;BME280;3488;42.616;23.350;2023-03-14T06:49:58;62388.06;;;3.81;63.27
6899;BME280;3488;42.616;23.350;2023-03-14T06:52:26;62408.59;;;3.98;63.31
6899;BME280;3488;42.616;23.350;2023-03-14T06:54:54;62419.44;;;4.11;63.37
6899;BME280;3488;42.616;23.350;2023-03-14T06:57:21;62452.75;;;4.39;62.64
6899;BME280;3488;42.616;23.350;2023-03-14T06:59:47;62468.78;;;4.57;62.23
6899;BME280;3488;42.616;23.350;2023-03-14T07:02:14;62481.59;;;4.67;62.06
6899;BME280;3488;42.616;23.350;2023-03-14T07:04:43;62488.94;;;4.82;61.87
6899;BME280;3488;42.616;23.350;2023-03-14T07:07:10;62510.88;;;4.93;61.68
6899;BME280;3488;42.616;23.350;2023-03-14T07:09:37;62490.38;;;4.78;60.57
6899;BME280;3488;42.616;23.350;2023-03-14T07:12:04;62505.31;;;4.93;59.87
6899;BME280;3488;42.616;23.350;2023-03-14T07:14:31;62515.69;;;5.05;59.50
6899;BME280;3488;42.616;23.350;2023-03-14T07:16:58;62527.50;;;5.17;59.09
6899;BME280;3488;42.616;23.350;2023-03-14T07:19:25;62535.13;;;5.19;58.71
6899;BME280;3488;42.616;23.350;2023-03-14T07:21:53;62520.81;;;5.10;58.58
6899;BME280;3488;42.616;23.350;2023-03-14T07:24:21;62537.31;;;5.26;59.01
6899;BME280;3488;42.616;23.350;2023-03-14T07:26:48;62537.31;;;5.26;58.00
6899;BME280;3488;42.616;23.350;2023-03-14T07:29:15;62539.75;;;5.24;58.70
6899;BME280;3488;42.616;23.350;2023-03-14T07:31:42;62537.19;;;5.21;58.79
6899;BME280;3488;42.616;23.350;2023-03-14T07:34:08;62527.97;;;5.15;59.14
6899;BME280;3488;42.616;23.350;2023-03-14T07:36:35;62552.13;;;5.36;59.36
6899;BME280;3488;42.616;23.350;2023-03-14T07:39:04;62552.22;;;5.41;58.51
6899;BME280;3488;42.616;23.350;2023-03-14T07:41:30;62545.47;;;5.32;59.03
6899;BME280;3488;42.616;23.350;2023-03-14T07:43:57;62559.38;;;5.45;57.83
6899;BME280;3488;42.616;23.350;2023-03-14T07:46:24;62565.00;;;5.48;58.60
6899;BME280;3488;42.616;23.350;2023-03-14T07:48:51;62575.34;;;5.61;57.93
6899;BME280;3488;42.616;23.350;2023-03-14T07:51:18;62588.28;;;5.76;57.00
6899;BME280;3488;42.616;23.350;2023-03-14T07:53:45;62610.41;;;5.95;58.72
6899;BME280;3488;42.616;23.350;2023-03-14T07:56:13;62627.94;;;6.12;56.58
6899;BME280;3488;42.616;23.350;2023-03-14T07:58:40;62594.94;;;5.80;55.22
6899;BME280;3488;42.616;23.350;2023-03-14T08:01:07;62585.19;;;5.73;56.38
6899;BME280;3488;42.616;23.350;2023-03-14T08:03:34;62599.03;;;5.81;55.75
6899;BME280;3488;42.616;23.350;2023-03-14T08:06:01;62600.06;;;5.82;56.10
6899;BME280;3488;42.616;23.350;2023-03-14T08:08:29;62615.66;;;6.05;55.00
6899;BME280;3488;42.616;23.350;2023-03-14T08:10:55;62634.06;;;6.16;55.23
6899;BME280;3488;42.616;23.350;2023-03-14T08:13:24;62652.16;;;6.36;54.54
6899;BME280;3488;42.616;23.350;2023-03-14T08:15:51;62676.88;;;6.57;54.05
6899;BME280;3488;42.616;23.350;2023-03-14T08:18:18;62691.88;;;6.74;53.53
6899;BME280;3488;42.616;23.350;2023-03-14T08:20:44;62696.47;;;6.76;52.40
6899;BME280;3488;42.616;23.350;2023-03-14T08:23:11;62708.84;;;6.88;52.21
6899;BME280;3488;42.616;23.350;2023-03-14T08:25:38;62716.09;;;6.98;52.36
6899;BME280;3488;42.616;23.350;2023-03-14T08:28:06;62710.88;;;6.90;51.43
6899;BME280;3488;42.616;23.350;2023-03-14T08:30:34;62703.78;;;6.88;51.45
6899;BME280;3488;42.616;23.350;2023-03-14T08:33:01;62729.50;;;7.11;51.42
6899;BME280;3488;42.616;23.350;2023-03-14T08:35:28;62748.66;;;7.32;50.99
6899;BME280;3488;42.616;23.350;2023-03-14T08:37:55;62763.06;;;7.44;50.20
6899;BME280;3488;42.616;23.350;2023-03-14T08:40:22;62778.00;;;7.58;49.65
6899;BME280;3488;42.616;23.350;2023-03-14T08:42:49;62774.91;;;7.55;49.27
6899;BME280;3488;42.616;23.350;2023-03-14T08:45:17;62771.34;;;7.54;49.54
6899;BME280;3488;42.616;23.350;2023-03-14T08:47:45;62784.72;;;7.65;48.63
6899;BME280;3488;42.616;23.350;2023-03-14T08:50:12;62768.78;;;7.52;48.26
6899;BME280;3488;42.616;23.350;2023-03-14T08:52:39;62783.19;;;7.63;47.86
6899;BME280;3488;42.616;23.350;2023-03-14T08:55:08;62798.09;;;7.75;47.49
6899;BME280;3488;42.616;23.350;2023-03-14T08:57:35;62803.25;;;7.80;46.95
6899;BME280;3488;42.616;23.350;2023-03-14T09:00:03;62822.34;;;7.99;47.43
6899;BME280;3488;42.616;23.350;2023-03-14T09:02:35;62843.66;;;8.25;47.61
6899;BME280;3488;42.616;23.350;2023-03-14T09:05:04;62855.47;;;8.34;45.17
6899;BME280;3488;42.616;23.350;2023-03-14T09:07:31;62859.66;;;8.40;45.61
6899;BME280;3488;42.616;23.350;2023-03-14T09:09:58;62877.06;;;8.50;45.59
6899;BME280;3488;42.616;23.350;2023-03-14T09:12:26;62876.13;;;8.54;44.83
6899;BME280;3488;42.616;23.350;2023-03-14T09:14:52;62889.03;;;8.66;46.03
6899;BME280;3488;42.616;23.350;2023-03-14T09:17:19;62911.25;;;8.88;44.85
6899;BME280;3488;42.616;23.350;2023-03-14T09:19:46;62903.50;;;8.80;45.91
6899;BME280;3488;42.616;23.350;2023-03-14T09:22:14;62941.72;;;9.15;44.87
6899;BME280;3488;42.616;23.350;2023-03-14T09:24:41;62948.41;;;9.21;44.81
6899;BME280;3488;42.616;23.350;2023-03-14T09:27:08;62968.13;;;9.43;43.72
6899;BME280;3488;42.616;23.350;2023-03-14T09:29:36;62982.63;;;9.60;42.97
6899;BME280;3488;42.616;23.350;2023-03-14T09:32:03;62984.19;;;9.61;43.70
6899;BME280;3488;42.616;23.350;2023-03-14T09:34:30;63009.41;;;9.78;43.01
6899;BME280;3488;42.616;23.350;2023-03-14T09:36:57;63005.41;;;9.82;42.68
6899;BME280;3488;42.616;23.350;2023-03-14T09:39:25;63015.13;;;9.86;43.19
6899;BME280;3488;42.616;23.350;2023-03-14T09:41:53;63004.41;;;9.83;42.37
6899;BME280;3488;42.616;23.350;2023-03-14T09:44:24;62988.28;;;9.63;43.31
6899;BME280;3488;42.616;23.350;2023-03-14T09:46:55;63004.25;;;9.76;43.35
6899;BME280;3488;42.616;23.350;2023-03-14T09:49:27;63026.03;;;9.99;43.01
6899;BME280;3488;42.616;23.350;2023-03-14T09:51:57;63046.28;;;10.21;42.92
6899;BME280;3488;42.616;23.350;2023-03-14T09:54:34;63077.22;;;10.46;42.38
6899;BME280;3488;42.616;23.350;2023-03-14T09:57:02;63086.09;;;10.60;43.12
6899;BME280;3488;42.616;23.350;2023-03-14T09:59:31;63133.16;;;11.03;42.52
6899;BME280;3488;42.616;23.350;2023-03-14T10:02:04;63111.84;;;10.78;40.70
6899;BME280;3488;42.616;23.350;2023-03-14T10:04:40;63080.91;;;10.53;41.71
6899;BME280;3488;42.616;23.350;2023-03-14T10:07:13;63094.34;;;10.66;41.05
6899;BME280;3488;42.616;23.350;2023-03-14T10:09:44;63103.19;;;10.77;40.38
6899;BME280;3488;42.616;23.350;2023-03-14T10:12:12;63123.84;;;10.94;40.11
6899;BME280;3488;42.616;23.350;2023-03-14T10:14:47;63146.63;;;11.16;39.95
6899;BME280;3488;42.616;23.350;2023-03-14T10:17:16;63159.56;;;11.29;40.15
6899;BME280;3488;42.616;23.350;2023-03-14T10:19:55;63160.63;;;11.32;39.92
6899;BME280;3488;42.616;23.350;2023-03-14T10:22:24;63184.91;;;11.51;39.98
6899;BME280;3488;42.616;23.350;2023-03-14T10:24:56;63203.56;;;11.69;40.90
6899;BME280;3488;42.616;23.350;2023-03-14T10:27:29;63228.44;;;11.93;39.79
6899;BME280;3488;42.616;23.350;2023-03-14T10:29:58;63247.69;;;12.17;38.94
6899;BME280;3488;42.616;23.350;2023-03-14T10:32:32;63254.34;;;12.18;39.20
6899;BME280;3488;42.616;23.350;2023-03-14T10:35:17;63294.78;;;12.57;39.60
6899;BME280;3488;42.616;23.350;2023-03-14T10:37:51;63326.94;;;12.89;38.74
6899;BME280;3488;42.616;23.350;2023-03-14T10:40:26;63336.75;;;12.96;37.55
6899;BME280;3488;42.616;23.350;2023-03-14T10:42:54;63279.25;;;12.42;38.63
6899;BME280;3488;42.616;23.350;2023-03-14T10:45:31;63270.94;;;12.34;39.36
6899;BME280;3488;42.616;23.350;2023-03-14T10:48:05;63268.81;;;12.30;39.43
6899;BME280;3488;42.616;23.350;2023-03-14T10:50:33;63231.53;;;11.96;40.50
6899;BME280;3488;42.616;23.350;2023-03-14T10:53:02;63257.50;;;12.24;39.78
6899;BME280;3488;42.616;23.350;2023-03-14T10:55:41;63290.63;;;12.53;39.87
6899;BME280;3488;42.616;23.350;2023-03-14T10:58:21;63296.38;;;12.61;39.83
6899;BME280;3488;42.616;23.350;2023-03-14T11:00:54;63324.84;;;12.87;40.44
6899;BME280;3488;42.616;23.350;2023-03-14T11:03:23;63354.94;;;13.16;39.50
6899;BME280;3488;42.616;23.350;2023-03-14T11:05:55;63360.69;;;13.24;39.86
6899;BME280;3488;42.616;23.350;2023-03-14T11:08:25;63383.53;;;13.46;39.05
6899;BME280;3488;42.616;23.350;2023-03-14T11:11:07;63389.19;;;13.49;38.14
6899;BME280;3488;42.616;23.350;2023-03-14T11:13:39;63411.50;;;13.70;38.77
6899;BME280;3488;42.616;23.350;2023-03-14T11:16:15;63422.44;;;13.83;38.35
6899;BME280;3488;42.616;23.350;2023-03-14T11:19:03;63419.31;;;13.80;37.95
6899;BME280;3488;42.616;23.350;2023-03-14T11:21:41;63433.75;;;13.87;38.10
6899;BME280;3488;42.616;23.350;2023-03-14T11:24:26;63452.00;;;14.10;37.54
6899;BME280;3488;42.616;23.350;2023-03-14T11:26:59;63476.38;;;14.31;37.42
6899;BME280;3488;42.616;23.350;2023-03-14T11:29:34;63443.19;;;14.04;36.98
6899;BME280;3488;42.616;23.350;2023-03-14T11:32:12;63442.16;;;14.03;37.16
6899;BME280;3488;42.616;23.350;2023-03-14T11:34:45;63449.94;;;14.10;37.36
6899;BME280;3488;42.616;23.350;2023-03-14T11:37:17;63474.81;;;14.29;37.07
6899;BME280;3488;42.616;23.350;2023-03-14T11:39:56;63462.91;;;14.23;36.83
6899;BME280;3488;42.616;23.350;2023-03-14T11:42:29;63464.97;;;14.22;36.83
6899;BME280;3488;42.616;23.350;2023-03-14T11:44:57;63491.44;;;14.45;36.17
6899;BME280;3488;42.616;23.350;2023-03-14T11:47:30;63457.72;;;14.18;36.39
6899;BME280;3488;42.616;23.350;2023-03-14T11:50:03;63463.94;;;14.24;36.53
6899;BME280;3488;42.616;23.350;2023-03-14T11:52:37;63489.97;;;14.51;37.18
6899;BME280;3488;42.616;23.350;2023-03-14T11:55:12;63497.75;;;14.59;35.07
6899;BME280;3488;42.616;23.350;2023-03-14T11:57:46;63479.50;;;14.36;35.54
6899;BME280;3488;42.616;23.350;2023-03-14T12:00:16;63465.56;;;14.28;35.76
6899;BME280;3488;42.616;23.350;2023-03-14T12:02:49;63481.03;;;14.35;35.88
6899;BME280;3488;42.616;23.350;2023-03-14T12:05:28;63485.78;;;14.45;37.03
6899;BME280;3488;42.616;23.350;2023-03-14T12:08:19;63513.31;;;14.71;35.04
6899;BME280;3488;42.616;23.350;2023-03-14T12:10:51;63505.00;;;14.63;34.47
6899;BME280;3488;42.616;23.350;2023-03-14T12:13:21;63500.78;;;14.54;34.49
6899;BME280;3488;42.616;23.350;2023-03-14T12:15:50;63519.03;;;14.77;34.19
6899;BME280;3488;42.616;23.350;2023-03-14T12:18:25;63541.34;;;14.96;34.62
6899;BME280;3488;42.616;23.350;2023-03-14T12:20:54;63549.66;;;15.06;34.07
6899;BME280;3488;42.616;23.350;2023-03-14T12:23:23;63539.25;;;14.94;33.89
6899;BME280;3488;42.616;23.350;2023-03-14T12:26:07;63507.03;;;14.63;34.19
6899;BME280;3488;42.616;23.350;2023-03-14T12:28:36;63512.19;;;14.65;34.63
6899;BME280;3488;42.616;23.350;2023-03-14T12:31:35;63475.94;;;14.35;35.07
6899;BME280;3488;42.616;23.350;2023-03-14T12:34:27;63506.53;;;14.62;34.38
6899;BME280;3488;42.616;23.350;2023-03-14T12:37:06;63506.53;;;14.62;34.44
6899;BME280;3488;42.616;23.350;2023-03-14T12:39:45;63536.63;;;14.89;34.02
6899;BME280;3488;42.616;23.350;2023-03-14T12:42:20;63554.88;;;15.12;33.56
6899;BME280;3488;42.616;23.350;2023-03-14T12:44:51;63546.03;;;15.03;32.84
6899;BME280;3488;42.616;23.350;2023-03-14T12:47:44;63561.13;;;15.20;33.70
6899;BME280;3488;42.616;23.350;2023-03-14T12:50:18;63591.09;;;15.37;33.55
6899;BME280;3488;42.616;23.350;2023-03-14T12:55:47;63619.19;;;15.64;33.75
6899;BME280;3488;42.616;23.350;2023-03-14T12:58:23;63614.63;;;15.67;33.07
6899;BME280;3488;42.616;23.350;2023-03-14T13:00:59;63617.22;;;15.69;32.18
6899;BME280;3488;42.616;23.350;2023-03-14T13:03:37;63645.84;;;15.99;32.91
6899;BME280;3488;42.616;23.350;2023-03-14T13:06:08;63652.06;;;16.03;33.18
6899;BME280;3488;42.616;23.350;2023-03-14T13:08:37;63655.16;;;16.06;33.09
6899;BME280;3488;42.616;23.350;2023-03-14T13:11:08;63670.28;;;16.26;32.71
6899;BME280;3488;42.616;23.350;2023-03-14T13:13:37;63708.22;;;16.55;32.61
6899;BME280;3488;42.616;23.350;2023-03-14T13:16:15;63720.22;;;16.71;30.61
6899;BME280;3488;42.616;23.350;2023-03-14T13:18:43;63720.72;;;16.69;30.95
6899;BME280;3488;42.616;23.350;2023-03-14T13:21:13;63736.84;;;16.85;30.51
6899;BME280;3488;42.616;23.350;2023-03-14T13:23:54;63734.81;;;16.88;31.05
6899;BME280;3488;42.616;23.350;2023-03-14T13:26:23;63745.13;;;16.90;30.40
6899;BME280;3488;42.616;23.350;2023-03-14T13:28:51;63763.84;;;17.06;30.67
6899;BME280;3488;42.616;23.350;2023-03-14T13:31:24;63745.72;;;16.96;31.63
6899;BME280;3488;42.616;23.350;2023-03-14T13:33:58;63763.91;;;17.11;31.47
6899;BME280;3488;42.616;23.350;2023-03-14T13:36:26;63769.16;;;17.21;30.78
6899;BME280;3488;42.616;23.350;2023-03-14T13:38:57;63758.72;;;17.08;30.63